createdAt,value
2019-05-23T00:01:49.735Z,59.60
2019-05-23T00:04:45.624Z,59.60
2019-05-23T00:07:35.834Z,59.70
2019-05-23T00:10:25.957Z,59.70
2019-05-23T00:13:01.318Z,59.80
2019-05-23T00:15:44.032Z,59.80
2019-05-23T00:18:14.341Z,59.80
2019-05-23T00:20:46.028Z,59.80
2019-05-23T00:23:17.004Z,59.70
2019-05-23T00:25:49.023Z,59.80
2019-05-23T00:28:22.485Z,59.80
2019-05-23T00:30:54.521Z,59.90
2019-05-23T00:33:29.278Z,59.90
2019-05-23T00:35:59.653Z,59.80
2019-05-23T00:38:29.936Z,59.90
2019-05-23T00:41:00.417Z,59.80
2019-05-23T00:43:31.059Z,59.90
2019-05-23T00:46:01.394Z,59.90
2019-05-23T00:48:34.088Z,59.90
2019-05-23T00:51:07.351Z,59.90
2019-05-23T00:53:39.019Z,59.90
2019-05-23T00:56:09.764Z,60.00
2019-05-23T00:58:40.584Z,59.90
2019-05-23T01:01:11.661Z,59.90
2019-05-23T01:03:41.952Z,60.00
2019-05-23T01:06:14.343Z,60.00
2019-05-23T01:08:44.653Z,59.90
2019-05-23T01:11:16.428Z,59.90
2019-05-23T01:13:47.001Z,60.00
2019-05-23T01:16:18.955Z,59.90
2019-05-23T01:18:52.126Z,59.90
2019-05-23T01:21:30.043Z,59.90
2019-05-23T01:24:01.880Z,59.90
2019-05-23T01:26:33.049Z,59.90
2019-05-23T01:29:03.404Z,59.90
2019-05-23T01:31:35.356Z,59.90
2019-05-23T01:34:05.738Z,59.90
2019-05-23T01:36:37.560Z,59.90
2019-05-23T01:39:10.435Z,59.90
2019-05-23T01:41:41.437Z,60.60
2019-05-23T01:44:13.227Z,59.90
2019-05-23T01:46:44.002Z,59.90
2019-05-23T01:49:15.482Z,59.90
2019-05-23T01:51:45.777Z,59.90
2019-05-23T01:54:16.090Z,60.00
2019-05-23T01:56:48.537Z,60.00
2019-05-23T01:59:19.436Z,60.00
2019-05-23T02:01:49.851Z,60.00
2019-05-23T02:04:20.085Z,60.00
2019-05-23T02:06:51.377Z,60.00
2019-05-23T02:09:22.454Z,60.00
2019-05-23T02:11:54.674Z,60.00
2019-05-23T02:14:25.129Z,60.00
2019-05-23T02:16:56.303Z,60.00
2019-05-23T02:19:28.296Z,60.00
2019-05-23T02:21:58.910Z,60.00
2019-05-23T02:24:29.897Z,60.00
2019-05-23T02:27:01.650Z,60.00
2019-05-23T02:29:32.462Z,60.00
2019-05-23T02:32:03.686Z,60.00
2019-05-23T02:34:34.133Z,60.00
2019-05-23T02:37:06.017Z,60.10
2019-05-23T02:39:37.881Z,60.00
2019-05-23T02:42:12.382Z,60.00
2019-05-23T02:44:44.174Z,60.00
2019-05-23T02:47:16.048Z,60.10
2019-05-23T02:49:48.258Z,60.10
2019-05-23T02:52:35.004Z,60.20
2019-05-23T02:55:10.010Z,60.10
2019-05-23T02:57:40.863Z,60.10
2019-05-23T03:00:54.292Z,60.10
2019-05-23T03:03:27.711Z,60.10
2019-05-23T03:05:59.660Z,60.00
2019-05-23T03:08:32.527Z,60.10
2019-05-23T03:11:29.013Z,60.20
2019-05-23T03:13:59.907Z,60.10
2019-05-23T03:16:31.929Z,60.20
2019-05-23T03:19:07.174Z,60.20
2019-05-23T03:21:37.617Z,60.20
2019-05-23T03:24:07.860Z,60.20
2019-05-23T03:26:58.306Z,60.20
2019-05-23T03:29:30.672Z,60.30
2019-05-23T03:32:03.632Z,60.30
2019-05-23T03:34:35.766Z,60.30
2019-05-23T03:37:07.686Z,60.30
2019-05-23T03:39:37.983Z,60.30
2019-05-23T03:42:09.670Z,60.40
2019-05-23T03:44:40.569Z,60.40
2019-05-23T03:47:12.423Z,61.20
2019-05-23T03:49:43.083Z,60.40
2019-05-23T03:52:15.274Z,60.40
2019-05-23T03:54:47.167Z,60.50
2019-05-23T03:57:19.025Z,60.40
2019-05-23T03:59:50.678Z,61.30
2019-05-23T04:02:22.797Z,60.50
2019-05-23T04:04:54.366Z,60.60
2019-05-23T04:07:24.813Z,60.60
2019-05-23T04:09:55.117Z,60.60
2019-05-23T04:12:25.328Z,60.60
2019-05-23T04:14:55.829Z,60.70
2019-05-23T04:17:26.207Z,60.80
2019-05-23T04:19:56.584Z,60.70
2019-05-23T04:22:26.808Z,60.80
2019-05-23T04:25:01.818Z,60.80
2019-05-23T04:27:30.102Z,60.80
2019-05-23T04:30:00.439Z,60.90
2019-05-23T04:32:32.492Z,60.90
2019-05-23T04:35:02.890Z,61.00
2019-05-23T04:37:33.167Z,61.00
2019-05-23T04:40:09.165Z,61.00
2019-05-23T04:42:40.041Z,61.10
2019-05-23T04:45:10.389Z,61.10
2019-05-23T04:47:40.924Z,61.30
2019-05-23T04:50:13.692Z,61.30
2019-05-23T04:52:43.902Z,61.40
2019-05-23T04:55:15.575Z,61.50
2019-05-23T04:57:47.050Z,61.40
2019-05-23T05:00:19.243Z,61.40
2019-05-23T05:02:49.816Z,61.60
2019-05-23T05:05:20.545Z,61.60
2019-05-23T05:07:50.830Z,61.70
2019-05-23T05:10:23.877Z,61.80
2019-05-23T05:12:54.609Z,61.80
2019-05-23T05:15:24.987Z,61.90
2019-05-23T05:17:55.443Z,62.00
2019-05-23T05:20:25.678Z,62.00
2019-05-23T05:22:55.980Z,62.10
2019-05-23T05:25:26.350Z,62.20
2019-05-23T05:27:56.768Z,62.20
2019-05-23T05:30:27.573Z,62.50
2019-05-23T05:33:01.095Z,62.40
2019-05-23T05:35:33.128Z,62.40
2019-05-23T05:38:03.434Z,62.50
2019-05-23T05:40:34.573Z,62.60
2019-05-23T05:43:04.806Z,62.70
2019-05-23T05:45:35.034Z,62.60
2019-05-23T05:48:05.907Z,62.70
2019-05-23T05:50:36.222Z,62.80
2019-05-23T05:53:07.273Z,62.80
2019-05-23T05:55:38.621Z,62.90
2019-05-23T05:58:08.902Z,63.70
2019-05-23T06:00:40.798Z,63.10
2019-05-23T06:03:11.172Z,63.20
2019-05-23T06:05:49.120Z,63.30
2019-05-23T06:08:21.022Z,63.40
2019-05-23T06:10:51.339Z,63.30
2019-05-23T06:13:21.713Z,63.50
2019-05-23T06:15:53.302Z,63.50
2019-05-23T06:18:23.603Z,63.50
2019-05-23T06:20:54.334Z,63.80
2019-05-23T06:23:24.886Z,63.70
2019-05-23T06:25:55.195Z,64.00
2019-05-23T06:28:25.545Z,64.00
2019-05-23T06:30:56.053Z,63.90
2019-05-23T06:33:26.267Z,64.30
2019-05-23T06:35:56.500Z,64.30
2019-05-23T06:38:26.771Z,64.20
2019-05-23T06:40:57.037Z,64.20
2019-05-23T06:43:27.464Z,64.20
2019-05-23T06:45:58.550Z,64.40
2019-05-23T06:48:29.736Z,64.30
2019-05-23T06:50:59.999Z,64.30
2019-05-23T06:53:30.232Z,64.30
2019-05-23T06:56:00.435Z,64.30
2019-05-23T06:58:30.848Z,64.50
2019-05-23T07:01:01.149Z,64.70
2019-05-23T07:03:42.447Z,65.00
2019-05-23T07:06:05.761Z,65.10
2019-05-23T07:08:35.991Z,65.20
2019-05-23T07:11:06.306Z,65.20
2019-05-23T07:13:37.138Z,65.40
2019-05-23T07:16:07.421Z,65.60
2019-05-23T07:18:37.960Z,65.60
2019-05-23T07:21:09.085Z,65.50
2019-05-23T07:23:39.399Z,65.50
2019-05-23T07:26:09.601Z,65.40
2019-05-23T07:28:42.456Z,65.40
2019-05-23T07:31:13.534Z,65.20
2019-05-23T07:34:00.430Z,64.90
2019-05-23T07:36:15.831Z,65.20
2019-05-23T07:38:46.121Z,65.00
2019-05-23T07:41:16.863Z,64.90
2019-05-23T07:43:48.256Z,65.10
2019-05-23T07:46:18.868Z,64.80
2019-05-23T07:48:49.460Z,65.00
2019-05-23T07:51:19.665Z,65.10
2019-05-23T07:54:09.568Z,64.60
2019-05-23T07:56:41.645Z,64.60
2019-05-23T07:59:11.887Z,64.20
2019-05-23T08:01:44.883Z,64.00
2019-05-23T08:04:21.755Z,64.20
2019-05-23T08:06:48.999Z,64.10
2019-05-23T08:09:21.309Z,64.20
2019-05-23T08:11:51.892Z,63.90
2019-05-23T08:14:22.132Z,63.90
2019-05-23T08:16:53.021Z,63.70
2019-05-23T08:19:23.595Z,63.70
2019-05-23T08:21:53.810Z,63.20
2019-05-23T08:24:24.456Z,63.20
2019-05-23T08:26:55.808Z,62.80
2019-05-23T08:29:27.036Z,62.10
2019-05-23T08:31:58.213Z,61.70
2019-05-23T08:34:40.511Z,61.40
2019-05-23T08:37:01.068Z,61.30
2019-05-23T08:39:32.687Z,60.90
2019-05-23T08:42:04.465Z,60.60
2019-05-23T08:44:34.697Z,60.60
2019-05-23T08:47:06.550Z,60.20
2019-05-23T08:49:36.776Z,59.80
2019-05-23T08:52:06.993Z,59.80
2019-05-23T08:54:37.441Z,59.80
2019-05-23T08:57:08.497Z,59.90
2019-05-23T08:59:38.908Z,59.80
2019-05-23T09:02:09.688Z,59.70
2019-05-23T09:04:39.986Z,59.70
2019-05-23T09:07:12.360Z,59.40
2019-05-23T09:09:43.241Z,59.50
2019-05-23T09:12:13.590Z,59.20
2019-05-23T09:14:44.369Z,59.20
2019-05-23T09:17:14.646Z,59.20
2019-05-23T09:19:45.945Z,59.00
2019-05-23T09:22:16.154Z,59.10
2019-05-23T09:24:46.453Z,58.70
2019-05-23T09:27:16.866Z,58.60
2019-05-23T09:29:47.129Z,58.30
2019-05-23T09:32:17.660Z,57.80
2019-05-23T09:34:47.897Z,58.10
2019-05-23T09:37:18.583Z,58.00
2019-05-23T09:39:50.088Z,58.00
2019-05-23T09:42:20.474Z,58.20
2019-05-23T09:44:50.780Z,57.80
2019-05-23T09:47:20.988Z,57.70
2019-05-23T09:49:54.437Z,57.50
2019-05-23T09:52:25.284Z,57.00
2019-05-23T09:54:55.653Z,57.00
2019-05-23T09:57:25.934Z,56.30
2019-05-23T09:59:57.027Z,56.30
2019-05-23T10:02:28.287Z,56.60
2019-05-23T10:04:59.053Z,56.20
2019-05-23T10:07:29.694Z,55.80
2019-05-23T10:09:59.928Z,56.10
2019-05-23T10:12:30.142Z,56.10
2019-05-23T10:15:00.644Z,56.10
2019-05-23T10:17:31.395Z,55.70
2019-05-23T10:20:01.690Z,55.90
2019-05-23T10:22:31.953Z,55.80
2019-05-23T10:25:02.251Z,55.50
2019-05-23T10:27:32.535Z,55.60
2019-05-23T10:30:03.030Z,55.70
2019-05-23T10:32:33.391Z,55.70
2019-05-23T10:35:04.564Z,55.10
2019-05-23T10:37:34.837Z,55.20
2019-05-23T10:40:05.284Z,54.80
2019-05-23T10:42:35.559Z,54.50
2019-05-23T10:45:08.942Z,54.80
2019-05-23T10:47:39.249Z,54.70
2019-05-23T10:50:10.353Z,54.60
2019-05-23T10:52:40.907Z,54.70
2019-05-23T10:55:11.127Z,54.80
2019-05-23T10:57:41.424Z,54.80
2019-05-23T11:00:13.182Z,54.70
2019-05-23T11:02:43.758Z,54.80
2019-05-23T11:05:14.553Z,54.90
2019-05-23T11:07:45.178Z,55.00
2019-05-23T11:10:16.481Z,54.80
2019-05-23T11:12:46.849Z,54.70
2019-05-23T11:15:17.180Z,54.70
2019-05-23T11:17:47.498Z,54.40
2019-05-23T11:20:19.755Z,54.10
2019-05-23T11:22:50.053Z,53.80
2019-05-23T11:25:20.662Z,53.50
2019-05-23T11:27:50.893Z,53.50
2019-05-23T11:30:32.213Z,53.80
2019-05-23T11:33:04.020Z,53.40
2019-05-23T11:35:34.636Z,53.50
2019-05-23T11:38:04.991Z,53.40
2019-05-23T11:40:35.460Z,53.40
2019-05-23T11:43:05.669Z,53.40
2019-05-23T11:45:45.626Z,53.50
2019-05-23T11:48:09.747Z,53.20
2019-05-23T11:50:40.030Z,53.90
2019-05-23T11:53:10.416Z,52.70
2019-05-23T11:55:40.712Z,52.70
2019-05-23T11:58:11.600Z,52.70
2019-05-23T12:01:03.259Z,52.90
2019-05-23T12:03:33.556Z,52.70
2019-05-23T12:06:06.029Z,52.20
2019-05-23T12:08:36.584Z,52.50
2019-05-23T12:11:06.885Z,52.40
2019-05-23T12:13:37.171Z,52.30
2019-05-23T12:16:08.383Z,52.50
2019-05-23T12:18:38.586Z,52.60
2019-05-23T12:21:08.826Z,52.50
2019-05-23T12:23:39.202Z,52.20
2019-05-23T12:26:09.407Z,52.40
2019-05-23T12:28:39.813Z,52.50
2019-05-23T12:31:10.726Z,52.00
2019-05-23T12:33:40.963Z,51.30
2019-05-23T12:36:12.012Z,51.80
2019-05-23T12:38:42.253Z,51.60
2019-05-23T12:41:13.596Z,51.60
2019-05-23T12:43:44.912Z,51.50
2019-05-23T12:46:15.166Z,51.00
2019-05-23T12:48:49.588Z,51.10
2019-05-23T12:51:33.534Z,51.10
2019-05-23T12:54:03.779Z,51.00
2019-05-23T12:56:34.657Z,51.00
2019-05-23T12:59:05.744Z,51.20
2019-05-23T13:01:37.726Z,50.40
2019-05-23T13:04:10.231Z,50.30
2019-05-23T13:06:41.450Z,50.30
2019-05-23T13:09:11.786Z,50.50
2019-05-23T13:11:42.228Z,50.70
2019-05-23T13:14:12.633Z,50.60
2019-05-23T13:16:42.988Z,50.30
2019-05-23T13:19:13.437Z,50.70
2019-05-23T13:21:43.889Z,50.20
2019-05-23T13:24:14.140Z,50.60
2019-05-23T13:26:44.413Z,50.30
2019-05-23T13:29:14.735Z,50.10
2019-05-23T13:31:45.312Z,49.90
2019-05-23T13:34:15.542Z,50.10
2019-05-23T13:36:45.785Z,50.10
2019-05-23T13:39:16.682Z,50.40
2019-05-23T13:41:46.929Z,50.10
2019-05-23T13:44:32.805Z,50.10
2019-05-23T13:46:49.235Z,50.00
2019-05-23T13:49:19.544Z,50.10
2019-05-23T13:51:49.929Z,50.60
2019-05-23T13:54:21.107Z,50.00
2019-05-23T13:56:51.698Z,50.20
2019-05-23T13:59:22.243Z,50.30
2019-05-23T14:01:52.977Z,50.10
2019-05-23T14:04:23.283Z,50.00
2019-05-23T14:06:53.593Z,50.10
2019-05-23T14:09:25.685Z,49.50
2019-05-23T14:12:20.076Z,49.70
2019-05-23T14:14:28.153Z,49.40
2019-05-23T14:16:59.999Z,49.20
2019-05-23T14:19:30.302Z,49.20
2019-05-23T14:22:00.520Z,49.30
2019-05-23T14:24:30.816Z,49.00
2019-05-23T14:27:08.353Z,49.00
2019-05-23T14:29:38.666Z,49.60
2019-05-23T14:32:22.375Z,50.00
2019-05-23T14:34:54.219Z,50.10
2019-05-23T14:37:31.768Z,50.00
2019-05-23T14:40:03.667Z,49.80
2019-05-23T14:42:53.260Z,49.70
2019-05-23T14:45:40.369Z,49.00
2019-05-23T14:48:27.472Z,49.00
2019-05-23T14:50:59.336Z,49.20
2019-05-23T14:53:33.920Z,48.40
2019-05-23T14:56:04.146Z,48.50
2019-05-23T14:58:34.525Z,48.60
2019-05-23T15:01:05.949Z,48.30
2019-05-23T15:03:36.386Z,48.40
2019-05-23T15:06:06.624Z,48.00
2019-05-23T15:08:50.602Z,47.80
2019-05-23T15:11:09.214Z,47.60
2019-05-23T15:13:39.433Z,47.30
2019-05-23T15:16:10.637Z,47.60
2019-05-23T15:18:40.902Z,47.40
2019-05-23T15:21:11.377Z,48.00
2019-05-23T15:23:41.598Z,47.50
2019-05-23T15:26:22.493Z,47.50
2019-05-23T15:28:43.959Z,47.70
2019-05-23T15:31:14.260Z,47.50
2019-05-23T15:33:44.490Z,47.50
2019-05-23T15:36:14.778Z,47.70
2019-05-23T15:38:44.989Z,47.20
2019-05-23T15:41:15.218Z,47.20
2019-05-23T15:43:45.427Z,47.30
2019-05-23T15:46:15.662Z,47.00
2019-05-23T15:48:45.942Z,46.60
2019-05-23T15:51:17.814Z,46.80
2019-05-23T15:53:49.667Z,46.90
2019-05-23T15:56:28.203Z,46.80
2019-05-23T15:59:07.142Z,47.50
2019-05-23T16:01:39.029Z,46.50
2019-05-23T16:04:16.738Z,46.30
2019-05-23T16:06:46.962Z,46.00
2019-05-23T16:09:29.741Z,45.90
2019-05-23T16:11:50.022Z,45.90
2019-05-23T16:14:21.055Z,46.30
2019-05-23T16:16:56.175Z,46.20
2019-05-23T16:19:24.020Z,46.30
2019-05-23T16:21:54.260Z,46.40
